createdAt,value
2022-09-25T18:46:23.090Z,98324.95
2022-09-25T18:49:36.604Z,98329.09
2022-09-25T18:52:50.178Z,98333.09
2022-09-25T18:56:02.997Z,98321.14
2022-09-25T18:59:15.518Z,98325.81
2022-09-25T19:02:30.852Z,98327.50
2022-09-25T19:05:42.933Z,98328.00
2022-09-25T19:09:01.408Z,98325.84
2022-09-25T19:12:15.346Z,98316.36
2022-09-25T19:15:28.709Z,98321.55
2022-09-25T19:18:41.012Z,98320.23
2022-09-25T19:21:52.945Z,98319.88
2022-09-25T19:25:05.860Z,98330.22
2022-09-25T19:28:17.861Z,98315.23
2022-09-25T19:31:31.678Z,98314.25
2022-09-25T19:34:43.509Z,98307.91
2022-09-25T19:37:55.196Z,98312.92
2022-09-25T19:41:07.924Z,98303.09
2022-09-25T19:44:21.664Z,98317.23
2022-09-25T19:47:33.573Z,98312.75
2022-09-25T19:50:47.779Z,98308.92
2022-09-25T19:54:00.214Z,98297.27
2022-09-25T19:57:12.556Z,98306.09
2022-09-25T20:00:25.408Z,98312.26
2022-09-25T20:03:37.277Z,98307.07
2022-09-25T20:06:49.005Z,98311.41
2022-09-25T20:10:00.801Z,98311.59
2022-09-25T20:13:13.612Z,98313.22
2022-09-25T20:16:29.290Z,98310.25
2022-09-25T20:19:41.262Z,98314.06
2022-09-25T20:22:53.055Z,98299.59
2022-09-25T20:26:15.748Z,98294.27
2022-09-25T20:29:27.456Z,98294.74
2022-09-25T20:32:39.276Z,98286.27
2022-09-25T20:35:51.050Z,98277.92
2022-09-25T20:39:03.880Z,98284.06
2022-09-25T20:42:17.248Z,98282.89
2022-09-25T20:45:29.030Z,98280.73
2022-09-25T20:48:44.859Z,98281.07
2022-09-25T20:51:57.120Z,98279.87
2022-09-25T20:55:09.405Z,98275.08
2022-09-25T20:58:21.374Z,98269.42
2022-09-25T21:01:38.418Z,98268.58
2022-09-25T21:04:50.446Z,98269.59
2022-09-25T21:08:02.289Z,98269.42
2022-09-25T21:11:15.448Z,98266.76
2022-09-25T21:14:29.619Z,98262.45
2022-09-25T21:17:41.201Z,98262.45
2022-09-25T21:20:53.305Z,98255.62
2022-09-25T21:24:06.366Z,98251.79
2022-09-25T21:27:18.113Z,98263.23
2022-09-25T21:30:29.855Z,98267.88
2022-09-25T21:33:42.021Z,98258.25
2022-09-25T21:36:54.135Z,98255.20
2022-09-25T21:40:05.900Z,98259.85
2022-09-25T21:43:17.839Z,98258.98
2022-09-25T21:46:30.926Z,98263.26
2022-09-25T21:49:42.628Z,98262.08
2022-09-25T21:52:55.110Z,98258.41
2022-09-25T21:56:11.593Z,98252.72
2022-09-25T21:59:23.650Z,98241.75
2022-09-25T22:02:38.743Z,98249.52
2022-09-25T22:05:50.517Z,98255.30
2022-09-25T22:09:06.452Z,98248.13
2022-09-25T22:12:18.026Z,98248.92
2022-09-25T22:15:30.335Z,98254.70
2022-09-25T22:18:48.555Z,98246.89
2022-09-25T22:22:03.576Z,98247.52
2022-09-25T22:25:16.335Z,98238.03
2022-09-25T22:28:28.644Z,98245.48
2022-09-25T22:31:43.331Z,98237.33
2022-09-25T22:34:55.162Z,98239.14
2022-09-25T22:38:06.768Z,98235.98
2022-09-25T22:41:20.075Z,98230.74
2022-09-25T22:44:32.348Z,98232.72
2022-09-25T22:47:43.882Z,98235.86
2022-09-25T22:51:02.545Z,98233.95
2022-09-25T22:54:17.698Z,98239.59
2022-09-25T22:57:29.185Z,98240.72
2022-09-25T23:00:40.946Z,98227.78
2022-09-25T23:03:52.560Z,98231.20
2022-09-25T23:07:04.158Z,98212.24
2022-09-25T23:10:16.766Z,98220.52
2022-09-25T23:13:28.343Z,98212.83
2022-09-25T23:16:41.145Z,98217.45
2022-09-25T23:19:52.721Z,98205.19
2022-09-25T23:23:04.837Z,98210.63
2022-09-25T23:26:16.550Z,98210.49
2022-09-25T23:29:29.727Z,98207.61
2022-09-25T23:32:41.448Z,98206.41
2022-09-25T23:35:52.977Z,98208.30
2022-09-25T23:39:06.688Z,98203.97
2022-09-25T23:42:18.279Z,98206.26
2022-09-25T23:45:30.034Z,98189.91
2022-09-25T23:48:41.810Z,98194.05
2022-09-25T23:51:54.388Z,98197.70
2022-09-25T23:55:06.065Z,98190.88
2022-09-25T23:58:18.204Z,98196.94
